Rio Vista, California
Current Conditions -  °F | °C
As of 7:58 AM on Friday 24 Oct 2014 (Local Time) from KSUU Reporting Station
Clear Clear  
Wind Chill: 48°   Ceiling: Unl
Heat Index: 48°   Visibility: 10mi
Dew Point: 48°   Wind: 2mph
Humidity: 99%   Direction: 40°NE
Pressure: 29.96"   Gusts: NA
Location:  38.16°N, 121.69°W
Report Text: KSUU 241458Z AUTO 04002KT 10SM CLR 09/09 A2996 RMK AO2 SLP152 T00890087 53002 $
Loading
Personal Weather Stations






























Interactive Weather Map
Tropical Storm Tracking
New forecast layout! Learn more

10-Day Weather Forecast

Advertisements
Track Severe Weather on mobile